createdAt,value
2022-11-28T00:01:20.270Z,72.17
2022-11-28T00:03:47.293Z,72.04
2022-11-28T00:06:14.895Z,72.18
2022-11-28T00:08:41.782Z,72.20
2022-11-28T00:11:09.297Z,73.46
2022-11-28T00:13:36.803Z,73.39
2022-11-28T00:16:05.856Z,73.13
2022-11-28T00:18:33.111Z,72.82
2022-11-28T00:21:01.491Z,72.38
2022-11-28T00:23:28.424Z,72.80
2022-11-28T00:25:59.150Z,72.16
2022-11-28T00:28:25.893Z,72.27
2022-11-28T00:30:52.779Z,72.53
2022-11-28T00:33:19.615Z,72.50
2022-11-28T00:35:46.203Z,72.74
2022-11-28T00:38:12.931Z,73.30
2022-11-28T00:40:39.756Z,73.29
2022-11-28T00:43:06.424Z,72.73
2022-11-28T00:45:33.019Z,72.95
2022-11-28T00:47:59.676Z,72.88
2022-11-28T00:50:26.465Z,72.96
2022-11-28T00:52:53.001Z,72.53
2022-11-28T00:55:19.629Z,73.64
2022-11-28T00:57:46.628Z,72.86
2022-11-28T01:00:14.016Z,72.87
2022-11-28T01:02:40.749Z,72.97
2022-11-28T01:05:07.572Z,73.15
2022-11-28T01:07:34.296Z,73.13
2022-11-28T01:10:00.869Z,72.47
2022-11-28T01:12:27.530Z,72.19
2022-11-28T01:14:54.268Z,72.49
2022-11-28T01:17:20.765Z,72.26
2022-11-28T01:19:47.472Z,72.01
2022-11-28T01:22:14.089Z,72.28
2022-11-28T01:24:41.007Z,72.35
2022-11-28T01:27:08.385Z,72.32
2022-11-28T01:29:35.081Z,72.29
2022-11-28T01:32:01.799Z,72.61
2022-11-28T01:34:28.338Z,72.68
2022-11-28T01:36:55.701Z,72.53
2022-11-28T01:39:22.408Z,72.39
2022-11-28T01:41:49.042Z,72.12
2022-11-28T01:44:21.784Z,72.07
2022-11-28T01:47:07.173Z,72.40
2022-11-28T01:49:36.502Z,72.28
2022-11-28T01:52:05.503Z,72.16
2022-11-28T01:54:33.762Z,72.05
2022-11-28T01:57:06.713Z,71.92
2022-11-28T01:59:37.971Z,72.27
2022-11-28T02:02:08.504Z,72.31
2022-11-28T02:04:35.299Z,71.99
2022-11-28T02:07:01.792Z,72.24
2022-11-28T02:09:28.440Z,74.39
2022-11-28T02:12:12.013Z,73.59
2022-11-28T02:15:16.260Z,74.03
2022-11-28T02:18:10.337Z,76.18
2022-11-28T02:21:12.592Z,75.35
2022-11-28T02:23:45.006Z,74.64
2022-11-28T02:26:40.268Z,74.21
2022-11-28T02:29:46.747Z,75.27
2022-11-28T02:32:22.850Z,75.68
2022-11-28T02:34:57.535Z,74.26
2022-11-28T02:37:30.537Z,73.84
2022-11-28T02:40:37.548Z,73.56
2022-11-28T02:43:04.177Z,74.14
2022-11-28T02:45:30.791Z,74.20
2022-11-28T02:48:09.672Z,75.09
2022-11-28T02:50:53.319Z,74.14
2022-11-28T02:53:23.203Z,74.14
2022-11-28T02:55:51.524Z,73.74
2022-11-28T03:01:36.457Z,73.84
2022-11-28T03:04:19.333Z,73.18
2022-11-28T03:07:00.126Z,73.38
2022-11-28T03:09:42.656Z,73.52
2022-11-28T03:12:50.347Z,73.74
2022-11-28T03:15:23.814Z,74.53
2022-11-28T03:18:08.123Z,76.15
2022-11-28T03:20:40.580Z,75.25
2022-11-28T03:23:10.245Z,75.22
2022-11-28T03:26:04.219Z,74.73
2022-11-28T03:28:32.254Z,74.40
2022-11-28T03:31:07.265Z,74.60
2022-11-28T03:33:38.200Z,74.05
2022-11-28T03:36:12.089Z,74.26
2022-11-28T03:38:43.111Z,74.48
2022-11-28T03:41:15.122Z,73.58
2022-11-28T03:43:46.940Z,73.61
2022-11-28T03:46:16.634Z,73.76
2022-11-28T03:48:47.029Z,73.71
2022-11-28T03:51:20.382Z,74.21
2022-11-28T03:54:10.406Z,74.20
2022-11-28T03:56:49.168Z,74.18
2022-11-28T03:59:29.254Z,74.00
2022-11-28T04:02:16.510Z,73.64
2022-11-28T04:04:52.584Z,74.11
2022-11-28T04:07:40.248Z,74.26
2022-11-28T04:10:21.134Z,73.77
2022-11-28T04:13:22.972Z,73.89
2022-11-28T04:16:21.994Z,76.15
2022-11-28T04:19:00.203Z,75.43
2022-11-28T04:21:55.877Z,74.84
2022-11-28T04:24:26.454Z,76.03
2022-11-28T04:26:58.880Z,77.14
2022-11-28T04:29:26.745Z,77.29
2022-11-28T04:31:56.371Z,75.80
2022-11-28T04:34:23.998Z,75.40
2022-11-28T04:36:51.564Z,74.90
2022-11-28T04:39:21.815Z,74.83
2022-11-28T04:42:20.841Z,74.53
2022-11-28T04:45:02.885Z,75.12
2022-11-28T04:47:29.982Z,75.11
2022-11-28T04:49:56.869Z,75.15
2022-11-28T04:52:29.185Z,75.45
2022-11-28T04:55:14.827Z,74.94
2022-11-28T04:57:44.233Z,74.73
2022-11-28T05:00:14.044Z,74.77
2022-11-28T05:02:42.261Z,75.06
2022-11-28T05:05:15.232Z,75.25
2022-11-28T05:07:42.205Z,75.22
2022-11-28T05:10:11.360Z,75.41
2022-11-28T05:12:38.149Z,75.25
2022-11-28T05:15:05.888Z,74.92
2022-11-28T05:17:32.574Z,75.37
2022-11-28T05:19:59.318Z,75.28
2022-11-28T05:22:25.885Z,75.20
2022-11-28T05:24:52.735Z,75.95
2022-11-28T05:27:19.424Z,75.17
2022-11-28T05:29:52.027Z,74.84
2022-11-28T05:32:19.043Z,74.81
2022-11-28T05:34:45.784Z,75.06
2022-11-28T05:37:12.454Z,75.00
2022-11-28T05:39:39.479Z,75.68
2022-11-28T05:42:06.484Z,75.53
2022-11-28T05:44:33.052Z,74.97
2022-11-28T05:46:59.741Z,74.97
2022-11-28T05:49:26.460Z,74.21
2022-11-28T05:51:53.108Z,74.75
2022-11-28T05:54:19.760Z,75.13
2022-11-28T05:56:49.783Z,76.29
2022-11-28T05:59:19.234Z,75.45
2022-11-28T06:01:45.979Z,75.17
2022-11-28T06:04:12.731Z,74.85
2022-11-28T06:06:39.344Z,74.92
2022-11-28T06:09:06.277Z,75.15
2022-11-28T06:11:34.166Z,75.02
2022-11-28T06:14:01.698Z,75.11
2022-11-28T06:16:29.979Z,75.31
2022-11-28T06:19:01.908Z,74.91
2022-11-28T06:21:29.796Z,75.47
2022-11-28T06:23:57.981Z,74.98
2022-11-28T06:26:26.281Z,74.97
2022-11-28T06:28:55.541Z,75.37
2022-11-28T06:31:31.524Z,75.28
2022-11-28T06:33:58.692Z,75.47
2022-11-28T06:36:26.524Z,75.32
2022-11-28T06:38:53.900Z,75.10
2022-11-28T06:41:21.271Z,75.08
2022-11-28T06:43:47.970Z,75.22
2022-11-28T06:46:17.892Z,75.31
2022-11-28T06:48:45.647Z,75.50
2022-11-28T06:51:13.488Z,75.46
2022-11-28T06:53:40.957Z,75.11
2022-11-28T06:56:16.721Z,74.65
2022-11-28T06:58:44.214Z,76.13
2022-11-28T07:01:15.991Z,75.48
2022-11-28T07:03:43.927Z,75.46
2022-11-28T07:06:11.692Z,75.19
2022-11-28T07:08:38.741Z,75.15
2022-11-28T07:11:11.430Z,75.19
2022-11-28T07:13:39.705Z,74.94
2022-11-28T07:16:07.744Z,75.70
2022-11-28T07:18:34.923Z,75.61
2022-11-28T07:21:01.753Z,75.58
2022-11-28T07:23:28.546Z,75.17
2022-11-28T07:26:02.431Z,74.86
2022-11-28T07:28:30.188Z,75.17
2022-11-28T07:31:31.969Z,75.24
2022-11-28T07:34:00.839Z,75.48
2022-11-28T07:36:28.895Z,75.25
2022-11-28T07:38:58.100Z,75.35
2022-11-28T07:41:26.991Z,75.24
2022-11-28T07:43:56.226Z,75.03
2022-11-28T07:46:24.389Z,75.23
2022-11-28T07:48:51.245Z,75.06
2022-11-28T07:51:21.816Z,74.93
2022-11-28T07:53:48.766Z,75.16
2022-11-28T07:56:17.735Z,74.75
2022-11-28T07:58:45.964Z,75.18
2022-11-28T08:01:33.368Z,75.29
2022-11-28T08:04:00.585Z,75.72
2022-11-28T08:06:29.699Z,75.29
2022-11-28T08:09:02.151Z,75.46
2022-11-28T08:11:30.257Z,75.41
2022-11-28T08:13:58.129Z,75.23
2022-11-28T08:16:27.689Z,75.41
2022-11-28T08:18:55.708Z,75.44
2022-11-28T08:21:25.298Z,75.38
2022-11-28T08:23:53.285Z,75.25
2022-11-28T08:26:24.908Z,75.35
2022-11-28T08:28:57.949Z,75.20
2022-11-28T08:31:36.839Z,74.80
2022-11-28T08:34:10.950Z,74.71
2022-11-28T08:36:37.873Z,74.42
2022-11-28T08:39:23.342Z,74.35
2022-11-28T08:41:50.651Z,74.49
2022-11-28T08:44:17.417Z,74.60
2022-11-28T08:46:44.342Z,74.36
2022-11-28T08:49:11.112Z,74.29
2022-11-28T08:51:37.800Z,74.20
2022-11-28T08:54:04.702Z,74.18
2022-11-28T08:56:31.421Z,74.15
2022-11-28T08:58:58.245Z,74.30
2022-11-28T09:01:26.792Z,74.31
2022-11-28T09:03:55.048Z,74.43
2022-11-28T09:06:23.035Z,74.46
2022-11-28T09:08:50.463Z,74.35
2022-11-28T09:11:19.337Z,74.13
2022-11-28T09:13:46.322Z,73.82
2022-11-28T09:16:14.572Z,73.31
2022-11-28T09:18:41.528Z,73.09
2022-11-28T09:21:09.587Z,72.78
2022-11-28T09:23:37.517Z,72.74
2022-11-28T09:26:11.938Z,72.68
2022-11-28T09:28:38.554Z,72.56
2022-11-28T09:31:06.893Z,72.20
2022-11-28T09:33:34.331Z,72.10
2022-11-28T09:36:09.327Z,72.22
2022-11-28T09:38:36.996Z,72.36
2022-11-28T09:41:04.674Z,72.05
2022-11-28T09:43:35.120Z,71.96
2022-11-28T09:46:06.310Z,72.13
2022-11-28T09:48:36.724Z,72.07
2022-11-28T09:51:15.059Z,71.91
2022-11-28T09:54:07.981Z,71.33
2022-11-28T09:56:35.736Z,71.11
2022-11-28T09:59:03.745Z,70.98
2022-11-28T10:01:53.128Z,70.51
2022-11-28T10:05:09.876Z,70.29
2022-11-28T10:07:55.552Z,70.65
2022-11-28T10:10:40.956Z,70.92
2022-11-28T10:13:21.503Z,71.05
2022-11-28T10:15:54.523Z,71.05
2022-11-28T10:19:02.615Z,71.36
2022-11-28T10:21:38.411Z,71.04
2022-11-28T10:24:16.498Z,70.65
2022-11-28T10:26:53.613Z,70.25
2022-11-28T10:29:38.594Z,69.91
2022-11-28T10:32:05.731Z,69.34
2022-11-28T10:34:40.400Z,69.34
2022-11-28T10:37:11.556Z,68.96
2022-11-28T10:39:43.195Z,68.43
2022-11-28T10:42:15.598Z,68.24
2022-11-28T10:44:51.182Z,67.94
2022-11-28T10:47:55.742Z,67.93
2022-11-28T10:50:34.409Z,67.83
2022-11-28T10:53:13.955Z,67.33
2022-11-28T10:56:11.670Z,67.63
2022-11-28T10:58:44.342Z,67.57
2022-11-28T11:01:12.635Z,67.49
2022-11-28T11:03:40.072Z,67.59
2022-11-28T11:06:07.596Z,67.57
2022-11-28T11:08:36.761Z,67.22
2022-11-28T11:11:22.595Z,67.30
2022-11-28T11:14:05.876Z,66.98
2022-11-28T11:16:51.298Z,67.12
2022-11-28T11:19:25.047Z,67.12
2022-11-28T11:22:31.889Z,66.80
2022-11-28T11:25:25.570Z,66.44
2022-11-28T11:27:57.750Z,66.40
2022-11-28T11:30:42.746Z,66.25
2022-11-28T11:33:16.202Z,65.69
2022-11-28T11:35:44.989Z,65.24
2022-11-28T11:38:20.651Z,65.09
2022-11-28T11:40:48.540Z,65.47
2022-11-28T11:43:33.199Z,65.95
2022-11-28T11:46:14.543Z,65.50
2022-11-28T11:48:43.475Z,64.87
2022-11-28T11:51:36.625Z,65.22
2022-11-28T11:54:14.731Z,65.61
2022-11-28T11:56:46.523Z,65.22
2022-11-28T11:59:25.230Z,64.41
2022-11-28T12:01:56.181Z,64.12
2022-11-28T12:04:47.133Z,64.16
2022-11-28T12:07:46.258Z,64.16
2022-11-28T12:10:16.150Z,64.12
2022-11-28T12:12:43.414Z,63.90
2022-11-28T12:15:18.894Z,63.82
2022-11-28T12:17:58.860Z,63.57
2022-11-28T12:20:31.852Z,64.01
2022-11-28T12:23:20.725Z,63.92
2022-11-28T12:25:57.118Z,64.11
2022-11-28T12:28:52.844Z,64.08
2022-11-28T12:31:41.343Z,64.10
2022-11-28T12:34:08.051Z,64.26
2022-11-28T12:37:06.697Z,64.18
2022-11-28T12:39:45.214Z,63.44
2022-11-28T12:42:40.470Z,63.78
2022-11-28T12:45:39.282Z,63.75
2022-11-28T12:48:15.196Z,63.72
2022-11-28T12:50:45.860Z,63.67
2022-11-28T12:53:34.475Z,63.34
2022-11-28T12:56:09.737Z,63.22
2022-11-28T12:59:03.038Z,63.08
2022-11-28T13:01:42.056Z,63.23
2022-11-28T13:04:25.358Z,63.38
2022-11-28T13:06:54.843Z,63.44
2022-11-28T13:09:34.358Z,63.71
2022-11-28T13:12:04.147Z,63.28
2022-11-28T13:14:38.940Z,62.90
2022-11-28T13:17:23.852Z,63.29
2022-11-28T13:20:29.100Z,64.03
2022-11-28T13:23:20.996Z,63.99
2022-11-28T13:26:24.095Z,63.87
2022-11-28T13:29:17.159Z,64.01
2022-11-28T13:31:56.092Z,63.68
2022-11-28T13:34:25.988Z,63.87
2022-11-28T13:39:47.317Z,64.01
2022-11-28T13:45:48.470Z,63.46
2022-11-28T13:51:32.705Z,63.83
2022-11-28T13:54:31.837Z,63.78
2022-11-28T13:57:16.961Z,63.50
2022-11-28T14:00:11.576Z,63.70
2022-11-28T14:02:47.814Z,63.71
2022-11-28T14:05:36.182Z,63.64
2022-11-28T14:08:04.254Z,63.74
2022-11-28T14:10:56.684Z,63.81
2022-11-28T14:13:53.260Z,63.87
2022-11-28T14:16:19.962Z,64.51
2022-11-28T14:19:03.018Z,64.78
2022-11-28T14:21:37.676Z,65.29
2022-11-28T14:24:19.082Z,65.20
2022-11-28T14:26:46.311Z,65.52
2022-11-28T14:29:38.554Z,65.29
2022-11-28T14:34:53.847Z,64.74
2022-11-28T14:37:20.897Z,64.78
2022-11-28T14:39:49.597Z,65.11
2022-11-28T14:42:44.157Z,65.05
2022-11-28T14:45:33.554Z,65.63
2022-11-28T14:48:22.930Z,65.69
2022-11-28T14:50:55.914Z,65.42
2022-11-28T14:53:36.380Z,65.20
2022-11-28T14:56:11.938Z,65.34
2022-11-28T14:58:38.873Z,65.93
2022-11-28T15:01:10.436Z,66.18
2022-11-28T15:03:40.659Z,66.98
2022-11-28T15:06:20.240Z,67.22
2022-11-28T15:09:02.806Z,67.86
2022-11-28T15:11:48.380Z,67.75
2022-11-28T15:14:20.238Z,67.75
2022-11-28T15:16:50.647Z,68.05
2022-11-28T15:19:39.689Z,68.02
2022-11-28T15:22:11.884Z,68.24
2022-11-28T15:24:40.255Z,68.52
2022-11-28T15:27:08.202Z,68.55
2022-11-28T15:29:36.540Z,68.36
2022-11-28T15:32:04.772Z,68.53
2022-11-28T15:34:33.200Z,68.38
2022-11-28T15:37:05.891Z,68.29
2022-11-28T15:39:40.020Z,68.27
2022-11-28T15:42:09.347Z,68.45
2022-11-28T15:44:37.831Z,68.66
2022-11-28T15:47:05.846Z,68.48
2022-11-28T15:49:34.789Z,68.70
2022-11-28T15:52:03.641Z,68.93
2022-11-28T15:54:41.421Z,69.01
2022-11-28T15:57:26.100Z,69.24
2022-11-28T15:59:53.009Z,69.44
2022-11-28T16:02:26.630Z,69.41
2022-11-28T16:05:01.000Z,69.42
2022-11-28T16:07:27.738Z,69.37
2022-11-28T16:09:58.819Z,69.38
2022-11-28T16:12:26.557Z,69.58
2022-11-28T16:14:58.760Z,69.42
2022-11-28T16:17:36.480Z,69.76
2022-11-28T16:20:04.693Z,70.02
2022-11-28T16:22:36.552Z,70.34
2022-11-28T16:25:20.330Z,70.27
2022-11-28T16:27:48.867Z,70.23
2022-11-28T16:30:39.517Z,70.48
2022-11-28T16:33:35.786Z,70.40
2022-11-28T16:36:08.828Z,70.19
2022-11-28T16:38:35.876Z,70.70
2022-11-28T16:41:02.586Z,70.47
2022-11-28T16:43:35.458Z,70.49
2022-11-28T16:46:06.542Z,70.58
2022-11-28T16:48:38.211Z,70.87
2022-11-28T16:51:10.714Z,70.84
2022-11-28T16:53:48.059Z,71.38
2022-11-28T16:56:30.191Z,71.63
2022-11-28T16:59:19.432Z,71.61
2022-11-28T17:01:47.352Z,71.70
2022-11-28T17:04:23.571Z,71.49
2022-11-28T17:06:52.353Z,71.50
2022-11-28T17:09:19.626Z,71.63
2022-11-28T17:12:25.820Z,71.82
2022-11-28T17:14:52.958Z,72.12
2022-11-28T17:17:21.168Z,71.80
2022-11-28T17:19:47.806Z,71.89
2022-11-28T17:22:17.181Z,72.14
2022-11-28T17:24:44.075Z,72.27
2022-11-28T17:27:14.653Z,71.75
2022-11-28T17:29:41.946Z,72.04
2022-11-28T17:32:13.647Z,71.80
2022-11-28T17:34:42.329Z,71.98
2022-11-28T17:37:09.472Z,72.32
2022-11-28T17:39:36.261Z,72.65
2022-11-28T17:42:03.558Z,72.68
2022-11-28T17:44:36.264Z,72.86
2022-11-28T17:47:04.118Z,73.15
2022-11-28T17:49:31.317Z,73.31
2022-11-28T17:51:58.625Z,72.98
2022-11-28T17:54:26.494Z,72.79
2022-11-28T17:56:54.143Z,72.91
2022-11-28T17:59:26.995Z,73.13
2022-11-28T18:01:54.061Z,73.94
2022-11-28T18:04:24.206Z,73.89
2022-11-28T18:06:51.040Z,73.82
2022-11-28T18:09:17.747Z,73.59
2022-11-28T18:11:46.497Z,73.47
2022-11-28T18:14:13.931Z,73.37
2022-11-28T18:16:43.062Z,73.53
2022-11-28T18:19:10.237Z,73.58
2022-11-28T18:21:37.375Z,73.93
2022-11-28T18:24:04.792Z,74.05
2022-11-28T18:26:31.920Z,74.22
2022-11-28T18:28:59.189Z,74.26
2022-11-28T18:31:28.707Z,74.62
2022-11-28T18:34:01.392Z,74.34
2022-11-28T18:36:31.293Z,74.19
2022-11-28T18:39:00.148Z,74.33
2022-11-28T18:41:27.580Z,74.31
2022-11-28T18:43:59.408Z,74.16
2022-11-28T18:46:28.011Z,74.66
2022-11-28T18:48:54.852Z,74.26
2022-11-28T18:51:24.271Z,74.31
2022-11-28T18:53:52.720Z,74.38
2022-11-28T18:56:20.194Z,74.50
2022-11-28T18:58:53.192Z,74.37
2022-11-28T19:01:22.199Z,74.33
2022-11-28T19:03:50.611Z,74.05
2022-11-28T19:06:18.745Z,74.10
2022-11-28T19:08:45.724Z,74.34
2022-11-28T19:11:14.803Z,74.65
2022-11-28T19:13:42.978Z,74.58
2022-11-28T19:16:13.183Z,74.42
2022-11-28T19:18:40.772Z,74.54
2022-11-28T19:21:10.946Z,74.46
2022-11-28T19:23:38.254Z,74.55
2022-11-28T19:26:13.183Z,74.98
2022-11-28T19:28:41.053Z,74.96
2022-11-28T19:31:21.983Z,75.09
2022-11-28T19:34:15.800Z,75.02
2022-11-28T19:36:45.442Z,74.99
2022-11-28T19:39:17.126Z,74.99
2022-11-28T19:41:44.094Z,75.12
2022-11-28T19:44:12.378Z,74.89
2022-11-28T19:46:39.117Z,74.73
2022-11-28T19:49:07.561Z,75.30
2022-11-28T19:51:34.747Z,74.88
2022-11-28T19:54:03.644Z,75.10
2022-11-28T19:56:31.536Z,75.09
2022-11-28T19:58:58.701Z,75.06
2022-11-28T20:01:25.834Z,75.09
2022-11-28T20:03:53.013Z,74.94
2022-11-28T20:06:27.081Z,75.14
2022-11-28T20:08:55.321Z,75.21
2022-11-28T20:11:24.804Z,75.37
2022-11-28T20:14:02.166Z,75.49
2022-11-28T20:16:30.616Z,75.69
2022-11-28T20:19:00.479Z,75.82
2022-11-28T20:21:28.280Z,75.72
2022-11-28T20:23:58.310Z,75.67
2022-11-28T20:26:26.951Z,75.80
2022-11-28T20:28:55.618Z,75.51
2022-11-28T20:31:26.837Z,75.58
2022-11-28T20:33:54.600Z,75.67
2022-11-28T20:36:23.821Z,75.77
2022-11-28T20:38:51.636Z,75.53
2022-11-28T20:41:20.046Z,75.50
2022-11-28T20:43:47.522Z,75.53
2022-11-28T20:46:18.360Z,75.40
2022-11-28T20:48:45.114Z,75.50
2022-11-28T20:51:14.284Z,75.59
2022-11-28T20:53:43.791Z,75.69
2022-11-28T20:56:18.995Z,75.74
2022-11-28T20:58:45.845Z,76.04
2022-11-28T21:01:17.169Z,76.14
2022-11-28T21:03:44.354Z,76.12
2022-11-28T21:06:11.222Z,75.81
2022-11-28T21:08:38.471Z,75.51
2022-11-28T21:11:06.684Z,75.90
2022-11-28T21:13:33.696Z,75.73
2022-11-28T21:19:38.497Z,75.58
2022-11-28T21:23:41.398Z,75.13
2022-11-28T21:27:43.081Z,75.46
2022-11-28T21:31:45.232Z,75.50
2022-11-28T21:35:46.961Z,75.57
2022-11-28T21:39:48.650Z,75.67
2022-11-28T21:43:50.337Z,76.01
2022-11-28T21:47:52.900Z,76.03
2022-11-28T21:51:55.306Z,75.98
2022-11-28T21:56:01.990Z,75.91
2022-11-28T22:00:05.020Z,75.76
2022-11-28T22:04:17.367Z,76.02
2022-11-28T22:08:20.719Z,75.88
2022-11-28T22:12:23.987Z,75.91
2022-11-28T22:16:28.380Z,75.98
2022-11-28T22:20:30.807Z,76.21
2022-11-28T22:24:32.510Z,76.20
2022-11-28T22:28:34.823Z,75.66
2022-11-28T22:32:37.487Z,76.06
2022-11-28T22:36:39.159Z,75.66
2022-11-28T22:40:41.014Z,76.02
2022-11-28T22:44:43.079Z,76.15
2022-11-28T22:48:45.086Z,76.54
2022-11-28T22:52:47.461Z,75.97
2022-11-28T22:56:49.427Z,75.53
2022-11-28T23:00:51.040Z,75.88
2022-11-28T23:04:52.799Z,75.56
2022-11-28T23:08:55.944Z,75.77
2022-11-28T23:12:59.650Z,75.76
2022-11-28T23:17:01.381Z,75.68
2022-11-28T23:21:05.745Z,76.09
2022-11-28T23:25:08.155Z,75.68
2022-11-28T23:29:11.616Z,76.03
2022-11-28T23:33:13.848Z,76.15
2022-11-28T23:37:15.835Z,76.02
2022-11-28T23:41:17.442Z,76.22
2022-11-28T23:45:19.051Z,76.55
2022-11-28T23:49:21.148Z,76.32
2022-11-28T23:53:23.034Z,76.45
2022-11-28T23:57:24.653Z,76.12
